Terminal Aerodrome Forecast
Issued by NWS

Home | Current Version | Previous Version | Text Only | Print | Product List | Glossary On
Versions: 1 2 3 4 5 6 7 8 9 10 11 12 13 14 15 16 17 18 19 20 21 22 23 24 25 26 27 28 29 30
000
FTUS41 KRNK 251139
TAFBCB
TAF
KBCB 251139Z 2512/2612 24003KT P6SM SCT025 BKN250
     FM251600 22006KT P6SM BKN200
     FM252200 15004KT P6SM OVC050
     FM260600 12003KT 4SM -RA BR OVC015
     FM260800 00000KT 1SM -RA OVC007=

USA.gov is the U.S. government's official web portal to all federal, state and local government web resources and services.